Current Weather

NSFA McMurdo Sound

NSFA McMurdo Sound, Antarctica (NZCM)

Report from: Tuesday, February 27, 2024 8:55 AM UTC
Current time: Tuesday, February 27, 2024 9:31 AM UTC

Nearby weather – Weather history – Daily summaries
Weather forecast

Temperature-15.7°C (3.7°F)
Wind chill-24.2°C (-11.6°F)
Dew point-24.7°C (-12.5°F)
Winds 9 kts (4.6 m/s, 10.4 mph) Northeast (40°)
Visibility6.2 mi. (10 km)
Clouds Sky clear
Altimeter28.98 in.Hg (981 mB)
Relative humidity46 %
Density altitude-6,196 ft. (-1,888 m)
Sea-level pressure108.2 kPa (1082 mB, 31.95 in.Hg)
Remarks Fully automated report
Automated weather observing station with precipitation discriminator
Pressure falling
Flight conditions Visual Meteorological Conditions
Raw dataNZCM 270855Z AUTO 04009KT 9999 CLR M16/M25 A2898 RMK AO2 SLP821 T11571247 57002
An error has occurred. This application may no longer respond until reloaded. Reload 🗙